METAR Formatted Surface Weather Observation
Issued by NWS Charleston, WV

Home | Current Version | Previous Version | Text Only | Print | Product List | Glossary On
Versions: 1 2 3
000
SAUS41 KRLX 030657 COR
MTRBKW
METAR KBKW 030651Z AUTO 18004KT 10SM SCT039 18/17 A3010 RMK AO2
SLP155 T01830172 TSNO



USA.gov is the U.S. government's official web portal to all federal, state and local government web resources and services.